createdAt,value
2023-01-17T00:02:04.728Z,19.62
2023-01-17T00:05:08.287Z,19.65
2023-01-17T00:08:14.668Z,19.58
2023-01-17T00:11:18.069Z,19.61
2023-01-17T00:14:21.265Z,19.64
2023-01-17T00:17:25.758Z,19.64
2023-01-17T00:20:30.992Z,19.64
2023-01-17T00:23:34.536Z,19.68
2023-01-17T00:26:37.863Z,19.40
2023-01-17T00:29:41.175Z,19.54
2023-01-17T00:32:44.456Z,19.65
2023-01-17T00:35:47.932Z,19.51
2023-01-17T00:38:53.677Z,19.51
2023-01-17T00:41:56.903Z,19.53
2023-01-17T00:45:02.435Z,19.49
2023-01-17T00:48:05.761Z,19.50
2023-01-17T00:51:09.119Z,19.32
2023-01-17T00:54:12.901Z,19.39
2023-01-17T00:57:16.128Z,19.38
2023-01-17T01:00:21.156Z,19.30
2023-01-17T01:03:24.365Z,19.36
2023-01-17T01:06:27.617Z,19.47
2023-01-17T01:09:33.180Z,19.47
2023-01-17T01:12:36.539Z,19.24
2023-01-17T01:15:39.777Z,19.34
2023-01-17T01:18:45.463Z,19.44
2023-01-17T01:21:48.688Z,19.40
2023-01-17T01:24:52.034Z,19.36
2023-01-17T01:28:06.999Z,19.38
2023-01-17T01:31:10.382Z,19.33
2023-01-17T01:34:13.807Z,19.37
2023-01-17T01:37:17.039Z,19.26
2023-01-17T01:40:21.033Z,19.22
2023-01-17T01:43:45.621Z,19.18
2023-01-17T01:46:49.103Z,19.24
2023-01-17T01:49:52.375Z,19.37
2023-01-17T01:52:59.222Z,19.36
2023-01-17T01:56:02.711Z,19.19
2023-01-17T01:59:09.236Z,19.01
2023-01-17T02:02:13.934Z,19.04
2023-01-17T02:05:19.322Z,19.03
2023-01-17T02:08:24.452Z,19.05
2023-01-17T02:11:28.107Z,18.90
2023-01-17T02:14:31.615Z,18.86
2023-01-17T02:17:46.758Z,19.00
2023-01-17T02:21:11.254Z,19.03
2023-01-17T02:24:24.213Z,18.97
2023-01-17T02:27:51.127Z,19.07
2023-01-17T02:31:13.372Z,19.20
2023-01-17T02:34:22.718Z,19.13
2023-01-17T02:37:47.348Z,19.29
2023-01-17T02:40:57.942Z,19.31
2023-01-17T02:44:02.991Z,19.42
2023-01-17T02:47:22.603Z,19.42
2023-01-17T02:50:31.002Z,19.01
2023-01-17T02:54:04.630Z,19.29
2023-01-17T02:57:34.518Z,19.20
2023-01-17T03:00:52.372Z,19.02
2023-01-17T03:04:07.538Z,19.21
2023-01-17T03:07:17.128Z,19.28
2023-01-17T03:10:21.138Z,19.46
2023-01-17T03:13:24.506Z,19.29
2023-01-17T03:16:31.732Z,19.07
2023-01-17T03:19:34.953Z,19.06
2023-01-17T03:22:38.260Z,18.90
2023-01-17T03:25:45.244Z,19.04
2023-01-17T03:28:49.792Z,19.05
2023-01-17T03:31:53.118Z,19.02
2023-01-17T03:34:56.430Z,18.94
2023-01-17T03:37:59.682Z,19.09
2023-01-17T03:41:05.146Z,18.95
2023-01-17T03:44:08.365Z,19.05
2023-01-17T03:47:11.559Z,19.10
2023-01-17T03:50:14.974Z,19.28
2023-01-17T03:53:18.290Z,19.23
2023-01-17T03:56:21.567Z,19.21
2023-01-17T03:59:24.892Z,19.20
2023-01-17T04:02:28.168Z,18.90
2023-01-17T04:05:31.450Z,19.01
2023-01-17T04:08:34.921Z,19.23
2023-01-17T04:11:38.166Z,18.83
2023-01-17T04:14:41.437Z,18.98
2023-01-17T04:17:44.735Z,18.73
2023-01-17T04:20:48.109Z,18.66
2023-01-17T04:23:51.363Z,18.72
2023-01-17T04:26:54.697Z,18.82
2023-01-17T04:29:57.933Z,18.87
2023-01-17T04:33:01.411Z,18.97
2023-01-17T04:36:04.964Z,18.84
2023-01-17T04:39:08.237Z,19.02
2023-01-17T04:42:12.527Z,18.75
2023-01-17T04:45:16.185Z,18.73
2023-01-17T04:48:21.880Z,18.69
2023-01-17T04:51:26.431Z,18.78
2023-01-17T04:54:29.636Z,18.89
2023-01-17T04:57:32.885Z,18.82
2023-01-17T05:00:36.032Z,18.74
2023-01-17T05:03:40.169Z,18.79
2023-01-17T05:06:43.519Z,18.89
2023-01-17T05:09:46.745Z,18.78
2023-01-17T05:13:00.521Z,18.85
2023-01-17T05:16:03.976Z,18.93
2023-01-17T05:19:07.241Z,18.74
2023-01-17T05:22:13.432Z,18.80
2023-01-17T05:25:16.655Z,18.84
2023-01-17T05:28:22.192Z,18.93
2023-01-17T05:31:25.395Z,18.75
2023-01-17T05:34:28.684Z,18.98
2023-01-17T05:37:33.943Z,18.78
2023-01-17T05:40:37.251Z,19.00
2023-01-17T05:43:40.523Z,18.96
2023-01-17T05:46:43.809Z,18.77
2023-01-17T05:49:47.043Z,18.80
2023-01-17T05:52:53.450Z,18.75
2023-01-17T05:55:56.656Z,18.93
2023-01-17T05:58:59.900Z,18.98
2023-01-17T06:02:03.148Z,19.17
2023-01-17T06:05:06.773Z,19.19
2023-01-17T06:08:10.751Z,19.18
2023-01-17T06:11:14.003Z,19.22
2023-01-17T06:14:17.189Z,19.27
2023-01-17T06:17:20.457Z,19.26
2023-01-17T06:20:23.879Z,19.21
2023-01-17T06:23:27.145Z,19.17
2023-01-17T06:26:30.311Z,18.98
2023-01-17T06:29:33.479Z,18.82
2023-01-17T06:32:36.798Z,18.94
2023-01-17T06:35:41.867Z,18.96
2023-01-17T06:38:45.229Z,19.10
2023-01-17T06:41:48.557Z,18.92
2023-01-17T06:44:51.819Z,19.01
2023-01-17T06:47:55.943Z,18.90
2023-01-17T06:50:59.322Z,18.91
2023-01-17T06:54:04.900Z,18.82
2023-01-17T06:57:08.129Z,18.84
2023-01-17T07:00:12.034Z,18.93
2023-01-17T07:03:23.920Z,19.01
2023-01-17T07:06:27.202Z,18.74
2023-01-17T07:09:30.384Z,18.97
2023-01-17T07:12:33.563Z,19.06
2023-01-17T07:15:36.828Z,19.05
2023-01-17T07:18:39.980Z,18.90
2023-01-17T07:21:45.389Z,18.92
2023-01-17T07:24:50.144Z,18.82
2023-01-17T07:27:56.695Z,18.91
2023-01-17T07:30:59.985Z,18.91
2023-01-17T07:34:03.810Z,19.02
2023-01-17T07:37:07.038Z,18.91
2023-01-17T07:40:10.965Z,18.95
2023-01-17T07:43:14.444Z,18.95
2023-01-17T07:46:17.747Z,19.02
2023-01-17T07:49:21.031Z,18.93
2023-01-17T07:52:24.276Z,18.99
2023-01-17T07:55:27.727Z,18.95
2023-01-17T07:58:31.436Z,19.23
2023-01-17T08:01:34.891Z,19.10
2023-01-17T08:04:38.112Z,18.97
2023-01-17T08:07:41.449Z,19.03
2023-01-17T08:10:44.745Z,19.14
2023-01-17T08:13:48.943Z,19.13
2023-01-17T08:16:52.249Z,19.12
2023-01-17T08:19:55.529Z,19.14
2023-01-17T08:22:58.703Z,18.96
2023-01-17T08:26:05.253Z,18.92
2023-01-17T08:29:08.591Z,19.02
2023-01-17T08:32:11.943Z,19.35
2023-01-17T08:35:15.182Z,19.23
2023-01-17T08:38:18.384Z,19.15
2023-01-17T08:41:22.339Z,19.26
2023-01-17T08:44:25.753Z,19.08
2023-01-17T08:47:28.907Z,18.98
2023-01-17T08:50:32.196Z,19.03
2023-01-17T08:53:35.472Z,19.21
2023-01-17T08:56:38.612Z,19.10
2023-01-17T08:59:41.775Z,19.14
2023-01-17T09:02:45.043Z,19.10
2023-01-17T09:05:48.234Z,19.15
2023-01-17T09:08:52.903Z,19.34
2023-01-17T09:11:56.096Z,19.28
2023-01-17T09:14:59.395Z,19.51
2023-01-17T09:18:02.702Z,19.34
2023-01-17T09:21:17.394Z,19.30
2023-01-17T09:24:20.773Z,19.25
2023-01-17T09:27:24.161Z,19.44
2023-01-17T09:30:27.472Z,19.17
2023-01-17T09:33:30.834Z,19.14
2023-01-17T09:36:34.163Z,19.22
2023-01-17T09:39:37.390Z,19.28
2023-01-17T09:42:41.241Z,19.30
2023-01-17T09:45:44.503Z,19.47
2023-01-17T09:48:48.265Z,19.32
2023-01-17T09:51:51.483Z,19.29
2023-01-17T09:54:56.930Z,19.38
2023-01-17T09:58:13.188Z,19.58
2023-01-17T10:01:48.911Z,19.44
2023-01-17T10:05:18.043Z,19.30
2023-01-17T10:08:23.872Z,19.21
2023-01-17T10:11:29.626Z,19.26
2023-01-17T10:14:32.862Z,19.42
2023-01-17T10:17:57.724Z,19.49
2023-01-17T10:21:17.978Z,19.38
2023-01-17T10:24:31.498Z,19.46
2023-01-17T10:27:48.345Z,19.54
2023-01-17T10:30:53.247Z,19.53
2023-01-17T10:33:58.396Z,19.54
2023-01-17T10:37:37.250Z,19.64
2023-01-17T10:40:52.244Z,19.64
2023-01-17T10:44:07.370Z,19.31
2023-01-17T10:47:20.817Z,19.33
2023-01-17T10:50:23.617Z,19.48
2023-01-17T10:53:51.319Z,19.39
2023-01-17T10:56:54.616Z,19.36
2023-01-17T11:00:01.483Z,19.40
2023-01-17T11:03:05.133Z,19.42
2023-01-17T11:06:26.361Z,19.48
2023-01-17T11:09:40.706Z,19.45
2023-01-17T11:12:48.630Z,19.25
2023-01-17T11:15:54.748Z,19.23
2023-01-17T11:19:19.542Z,19.48
2023-01-17T11:22:23.853Z,19.35
2023-01-17T11:25:29.604Z,19.25
2023-01-17T11:28:34.766Z,19.41
2023-01-17T11:31:37.899Z,19.31
2023-01-17T11:34:41.279Z,19.32
2023-01-17T11:38:10.448Z,19.27
2023-01-17T11:41:15.810Z,19.19
2023-01-17T11:44:33.984Z,19.22
2023-01-17T11:47:37.211Z,19.16
2023-01-17T11:50:44.911Z,19.39
2023-01-17T11:53:48.536Z,19.43
2023-01-17T11:57:00.922Z,19.25
2023-01-17T12:00:16.583Z,19.22
2023-01-17T12:03:40.350Z,19.23
2023-01-17T12:06:57.765Z,19.49
2023-01-17T12:10:20.388Z,19.35
2023-01-17T12:13:29.794Z,19.65
2023-01-17T12:17:06.567Z,19.75
2023-01-17T12:20:25.838Z,19.75
2023-01-17T12:23:57.416Z,19.78
2023-01-17T12:27:20.234Z,19.80
2023-01-17T12:30:44.673Z,19.77
2023-01-17T12:34:15.367Z,19.79
2023-01-17T12:37:39.116Z,19.92
2023-01-17T12:41:07.000Z,19.82
2023-01-17T12:44:11.238Z,19.86
2023-01-17T12:47:15.643Z,19.89
2023-01-17T12:50:52.711Z,19.92
2023-01-17T12:54:22.039Z,19.76
2023-01-17T12:57:39.034Z,19.66
2023-01-17T13:00:44.118Z,19.76
2023-01-17T13:04:21.951Z,19.78
2023-01-17T13:07:37.011Z,19.80
2023-01-17T13:10:54.559Z,19.85
2023-01-17T13:13:57.740Z,20.03
2023-01-17T13:17:05.781Z,19.85
2023-01-17T13:20:32.251Z,19.94
2023-01-17T13:23:41.430Z,19.73
2023-01-17T13:26:56.831Z,19.71
2023-01-17T13:30:20.844Z,19.77
2023-01-17T13:33:57.186Z,19.93
2023-01-17T13:37:30.939Z,19.95
2023-01-17T13:40:54.516Z,19.96
2023-01-17T13:43:58.378Z,19.95
2023-01-17T13:47:12.580Z,19.85
2023-01-17T13:50:37.502Z,19.86
2023-01-17T13:53:40.649Z,20.00
2023-01-17T13:56:43.816Z,19.92
2023-01-17T13:59:47.007Z,19.85
2023-01-17T14:02:51.855Z,19.95
2023-01-17T14:05:58.580Z,19.95
2023-01-17T14:09:09.457Z,20.06
2023-01-17T14:12:12.596Z,19.94
2023-01-17T14:15:26.176Z,20.01
2023-01-17T14:18:35.043Z,20.04
2023-01-17T14:21:38.271Z,19.96
2023-01-17T14:25:01.583Z,20.02
2023-01-17T14:28:17.265Z,20.12
2023-01-17T14:31:21.899Z,19.95
2023-01-17T14:34:25.241Z,19.98
2023-01-17T14:37:48.439Z,19.93
2023-01-17T14:40:55.250Z,19.92
2023-01-17T14:43:59.092Z,20.06
2023-01-17T14:47:02.267Z,20.06
2023-01-17T14:50:26.923Z,20.10
2023-01-17T14:53:33.607Z,20.07
2023-01-17T14:56:36.838Z,20.03
2023-01-17T14:59:39.977Z,19.85
2023-01-17T15:02:47.379Z,19.93
2023-01-17T15:05:53.050Z,20.10
2023-01-17T15:08:56.366Z,20.11
2023-01-17T15:11:59.955Z,20.23
2023-01-17T15:15:03.331Z,20.20
2023-01-17T15:18:15.611Z,20.09
2023-01-17T15:21:22.134Z,20.25
2023-01-17T15:24:31.985Z,20.28
2023-01-17T15:27:35.416Z,20.34
2023-01-17T15:30:38.753Z,20.32
2023-01-17T15:33:49.215Z,20.42
2023-01-17T15:36:53.029Z,20.18
2023-01-17T15:40:23.594Z,20.26
2023-01-17T15:43:31.668Z,20.42
2023-01-17T15:46:43.266Z,20.24
2023-01-17T15:49:52.386Z,20.26
2023-01-17T15:52:58.562Z,20.19
2023-01-17T15:56:02.050Z,20.21
2023-01-17T15:59:44.374Z,20.36
2023-01-17T16:02:49.103Z,20.44
2023-01-17T16:05:54.834Z,20.54
2023-01-17T16:08:58.143Z,20.48
2023-01-17T16:12:01.380Z,20.45
2023-01-17T16:15:12.963Z,20.55
2023-01-17T16:18:23.624Z,20.77
2023-01-17T16:21:29.415Z,20.54
2023-01-17T16:24:33.144Z,20.79
2023-01-17T16:27:36.343Z,20.81
2023-01-17T16:30:42.128Z,20.84
2023-01-17T16:33:45.876Z,20.99
2023-01-17T16:36:54.563Z,20.84
2023-01-17T16:39:57.728Z,21.01
2023-01-17T16:43:01.817Z,21.18
2023-01-17T16:46:05.535Z,21.00
2023-01-17T16:49:08.906Z,20.86
2023-01-17T16:52:12.153Z,21.04
2023-01-17T16:55:17.530Z,21.26
2023-01-17T16:58:20.690Z,21.72
2023-01-17T17:01:23.992Z,21.88
2023-01-17T17:04:27.193Z,22.10
2023-01-17T17:07:30.445Z,21.99
2023-01-17T17:10:33.686Z,22.05
2023-01-17T17:13:37.402Z,22.35
2023-01-17T17:16:40.931Z,22.08
2023-01-17T17:19:44.388Z,22.58
2023-01-17T17:22:51.387Z,22.83
2023-01-17T17:25:58.363Z,22.77
2023-01-17T17:29:02.896Z,22.59
2023-01-17T17:32:06.337Z,22.84
2023-01-17T17:35:09.898Z,22.58
2023-01-17T17:38:15.343Z,22.99
2023-01-17T17:41:26.793Z,23.19
2023-01-17T17:44:37.350Z,23.24
2023-01-17T17:47:40.611Z,23.05
2023-01-17T17:50:44.007Z,23.00
2023-01-17T17:53:47.393Z,22.74
2023-01-17T17:56:50.690Z,22.88
2023-01-17T17:59:53.945Z,23.08
2023-01-17T18:02:57.166Z,23.29
2023-01-17T18:06:06.796Z,23.68
2023-01-17T18:09:13.422Z,23.89
2023-01-17T18:12:18.634Z,24.01
2023-01-17T18:15:21.829Z,24.08
2023-01-17T18:18:25.114Z,23.84
2023-01-17T18:21:30.551Z,23.98
2023-01-17T18:24:33.782Z,24.36
2023-01-17T18:27:37.119Z,24.41
2023-01-17T18:30:40.329Z,24.22
2023-01-17T18:33:43.595Z,24.15
2023-01-17T18:36:46.868Z,24.37
2023-01-17T18:39:50.547Z,24.83
2023-01-17T18:42:56.544Z,24.95
2023-01-17T18:46:00.119Z,24.66
2023-01-17T18:49:04.068Z,24.99
2023-01-17T18:52:07.369Z,25.43
2023-01-17T18:55:10.579Z,25.09
2023-01-17T18:58:13.797Z,24.85
2023-01-17T19:01:25.548Z,25.33
2023-01-17T19:04:28.899Z,24.73
2023-01-17T19:07:32.086Z,24.64
2023-01-17T19:10:35.485Z,24.95
2023-01-17T19:13:39.984Z,24.64
2023-01-17T19:16:43.848Z,24.67
2023-01-17T19:19:47.048Z,24.55
2023-01-17T19:22:50.303Z,24.84
2023-01-17T19:25:54.999Z,24.55
2023-01-17T19:28:59.160Z,24.57
2023-01-17T19:32:02.357Z,24.76
2023-01-17T19:35:07.390Z,24.83
2023-01-17T19:38:11.815Z,25.03
2023-01-17T19:41:26.476Z,24.71
2023-01-17T19:44:29.705Z,25.13
2023-01-17T19:47:32.997Z,25.19
2023-01-17T19:50:36.185Z,24.48
2023-01-17T19:53:40.495Z,24.27
2023-01-17T19:56:43.920Z,24.15
2023-01-17T19:59:47.110Z,24.46
2023-01-17T20:02:50.384Z,24.80
2023-01-17T20:05:57.397Z,24.63
2023-01-17T20:09:00.704Z,24.26
2023-01-17T20:12:04.093Z,24.20
2023-01-17T20:15:07.868Z,24.76
2023-01-17T20:18:11.055Z,24.85
2023-01-17T20:21:23.073Z,24.87
2023-01-17T20:24:26.374Z,25.08
2023-01-17T20:27:29.686Z,24.42
2023-01-17T20:30:33.102Z,24.33
2023-01-17T20:33:38.304Z,24.32
2023-01-17T20:36:42.248Z,24.38
2023-01-17T20:39:45.524Z,24.68
2023-01-17T20:42:51.036Z,25.30
2023-01-17T20:45:57.398Z,24.82
2023-01-17T20:49:00.861Z,25.12
2023-01-17T20:52:06.070Z,25.14
2023-01-17T20:55:11.767Z,25.36
2023-01-17T20:58:15.039Z,25.39
2023-01-17T21:01:19.890Z,25.14
2023-01-17T21:04:23.258Z,25.44
2023-01-17T21:07:27.069Z,25.84
2023-01-17T21:10:30.339Z,24.96
2023-01-17T21:13:34.321Z,25.06
2023-01-17T21:16:37.768Z,26.02
2023-01-17T21:19:41.038Z,25.53
2023-01-17T21:22:44.389Z,25.83
2023-01-17T21:25:55.544Z,25.74
2023-01-17T21:28:59.489Z,25.34
2023-01-17T21:32:02.684Z,25.07
2023-01-17T21:35:06.806Z,25.24
2023-01-17T21:38:12.591Z,25.80
2023-01-17T21:41:17.124Z,25.23
2023-01-17T21:44:24.116Z,25.51
2023-01-17T21:47:28.425Z,25.41
2023-01-17T21:50:33.591Z,25.28
2023-01-17T21:53:38.732Z,25.11
2023-01-17T21:56:42.004Z,25.13
2023-01-17T21:59:47.710Z,25.06
2023-01-17T22:02:51.393Z,24.92
2023-01-17T22:05:56.413Z,24.90
2023-01-17T22:08:59.986Z,24.84
2023-01-17T22:12:03.194Z,24.85
2023-01-17T22:15:07.110Z,25.14
2023-01-17T22:18:10.532Z,24.94
2023-01-17T22:21:16.481Z,24.81
2023-01-17T22:24:19.823Z,24.50
2023-01-17T22:27:25.430Z,24.65
2023-01-17T22:30:28.704Z,24.74
2023-01-17T22:33:31.954Z,24.88
2023-01-17T22:36:35.628Z,24.65
2023-01-17T22:39:39.441Z,24.80
2023-01-17T22:42:43.896Z,24.63
2023-01-17T22:45:47.132Z,24.71
2023-01-17T22:48:50.667Z,24.43
2023-01-17T22:51:53.933Z,24.51
2023-01-17T22:54:57.290Z,24.35
2023-01-17T22:58:00.513Z,24.48
2023-01-17T23:01:11.607Z,24.18
2023-01-17T23:04:15.827Z,24.49
2023-01-17T23:07:19.137Z,24.47
2023-01-17T23:10:22.323Z,24.33
2023-01-17T23:13:25.564Z,24.21
2023-01-17T23:16:28.762Z,23.98
2023-01-17T23:19:38.317Z,23.77
2023-01-17T23:22:44.564Z,23.75
2023-01-17T23:25:47.817Z,23.64
2023-01-17T23:28:51.112Z,23.68
2023-01-17T23:31:54.320Z,23.70
2023-01-17T23:34:59.845Z,23.50
2023-01-17T23:38:03.233Z,23.41
2023-01-17T23:41:08.309Z,23.34
2023-01-17T23:44:11.498Z,23.37
2023-01-17T23:47:14.731Z,23.13
2023-01-17T23:50:19.442Z,23.07
2023-01-17T23:53:22.793Z,22.87
2023-01-17T23:56:25.999Z,22.75
2023-01-17T23:59:29.515Z,22.72
